This is the latest recevied weather packets stored in our database for station/object AD7ZD. If no packets are shown the sender has not sent any weather packets the latest 1 day(s).
| Time | Temp. | Humidity | Pressure | Rain* | Wind** | Luminosity | Snow |
|---|---|---|---|---|---|---|---|
| 1778016564 | 15.56° C | 59% | 1011.3 hPa | 0 mm | 1.34 m/s, 170° | 696 W/m² | - |
| 1778016261 | 14.44° C | 57% | 1011.3 hPa | 0 mm | 2.24 m/s, 347° | 623 W/m² | - |
| 1778015957 | 14.44° C | 54% | 1011.4 hPa | 0 mm | 0.89 m/s, 241° | 812 W/m² | - |
| 1778015655 | 15° C | 59% | 1011.6 hPa | 0 mm | 1.34 m/s, 211° | 757 W/m² | - |
| 1778015350 | 15° C | 58% | 1011.6 hPa | 0 mm | 2.24 m/s, 157° | 700 W/m² | - |
| 1778015048 | 15° C | 55% | 1011.4 hPa | 0 mm | 0.45 m/s, 151° | 779 W/m² | - |
| 1778014745 | 14.44° C | 60% | 1011.6 hPa | 0 mm | 2.24 m/s, 209° | 858 W/m² | - |
| 1778014443 | 13.89° C | 58% | 1011.6 hPa | 0 mm | 2.68 m/s, 115° | 828 W/m² | - |
| 1778014140 | 13.89° C | 60% | 1011.6 hPa | 0 mm | 3.58 m/s, 215° | 758 W/m² | - |
| 1778013837 | 14.44° C | 62% | 1011.7 hPa | 0 mm | 1.79 m/s, 196° | 542 W/m² | - |
| 1778013534 | 15° C | 61% | 1011.7 hPa | 0 mm | 1.79 m/s, 208° | 499 W/m² | - |
| 1778013231 | 14.44° C | 62% | 1011.9 hPa | 0 mm | 1.79 m/s, 184° | 646 W/m² | - |
| 1778012927 | 13.33° C | 65% | 1011.8 hPa | 0 mm | 3.13 m/s, 182° | 699 W/m² | - |
| 1778012624 | 14.44° C | 64% | 1011.7 hPa | 0 mm | 2.24 m/s, 152° | 470 W/m² | - |
| 1778012320 | 13.89° C | 62% | 1011.8 hPa | 0 mm | 0.89 m/s, 63° | 573 W/m² | - |
| 1778012018 | 13.33° C | 66% | 1011.7 hPa | 0 mm | 1.34 m/s, 244° | 446 W/m² | - |
| 1778011716 | 12.78° C | 68% | 1011.4 hPa | 0 mm | 1.79 m/s, 250° | 449 W/m² | - |
| 1778011412 | 12.78° C | 67% | 1011.6 hPa | 0 mm | 1.34 m/s, 222° | 365 W/m² | - |
| 1778011108 | 13.33° C | 68% | 1011.7 hPa | 0 mm | 2.24 m/s, 145° | 383 W/m² | - |
| 1778010805 | 12.78° C | 68% | 1011.8 hPa | 0 mm | 1.79 m/s, 155° | 422 W/m² | - |
| 1778010502 | 12.22° C | 68% | 1011.8 hPa | 0 mm | 0 m/s | 442 W/m² | - |
| 1778010200 | 13.89° C | 68% | 1011.7 hPa | 0 mm | 1.79 m/s, 169° | 318 W/m² | - |
| 1778009895 | 12.78° C | 68% | 1011.8 hPa | 0 mm | 0 m/s | 636 W/m² | - |
| 1778009593 | 12.78° C | 71% | 1011.7 hPa | 0 mm | 1.79 m/s, 130° | 697 W/m² | - |
| 1778009291 | 11.67° C | 71% | 1012 hPa | 0 mm | 1.34 m/s, 222° | 202 W/m² | - |
* Rain latest hour (hover to see other rain measurements)
** Current wind speed in m/s (hover to see current wind gust speed)